METAR Data

Data at: 1120 UTC 24 May 2022

METAR for:KBHB (Bar Harbor/Hancock C, ME, US)
Text:KBHB 241056Z AUTO 02007KT 10SM CLR 08/02 A3037 RMK AO2 SLP284 T00830022 $
Temperature: 8.3°C ( 47°F)
Dewpoint: 2.2°C ( 36°F) [RH = 65%]
Pressure (altimeter):30.37 inches Hg (1028.5 mb) [Sea level pressure: 1028.4 mb]
Winds:from the NNE (20 degrees) at 8 MPH (7 knots; 3.6 m/s)
Visibility:10 or more sm (16+ km)
Ceiling:at least 12,000 feet AGL
Clouds:sky clear below 12,000 feet AGL
QC Flag:automated observation with no human augmentation; SOME DATA ABOVE MAY BE INACCURATE!!!"$" is an indication the sensor requires maintenance.